Time;durP1;ratioP1;P1;durP2;ratioP2;P2;SDS_P1;SDS_P2;PMS_P1;PMS_P2;Temp;Humidity;BMP_temperature;BMP_pressure;BME280_temperature;BME280_humidity;BME280_pressure;Samples;Min_cycle;Max_cycle;Signal;HPM_P1;HPM_P2
2021/04/20 00:00:43;;;;;;;26.30;22.55;;;11.20;61.60;;;;;;5134021;27;20419;-74
2021/04/20 00:03:09;;;;;;;23.33;20.88;;;11.20;61.70;;;;;;5117436;27;20047;-73
2021/04/20 00:05:35;;;;;;;24.17;21.45;;;11.10;61.70;;;;;;5099701;27;20047;-74
2021/04/20 00:08:01;;;;;;;24.38;21.48;;;11.10;61.70;;;;;;5117198;27;20051;-74
2021/04/20 00:10:26;;;;;;;24.15;21.58;;;11.10;61.70;;;;;;5099852;27;20054;-74
2021/04/20 00:12:52;;;;;;;24.48;21.88;;;11.10;61.80;;;;;;5134428;27;20502;-74
2021/04/20 00:15:25;;;;;;;24.00;21.52;;;11.10;61.90;;;;;;5134428;27;20132;-74
2021/04/20 00:17:52;;;;;;;23.50;20.73;;;11.00;62.00;;;;;;5082644;27;20131;-76
2021/04/20 00:20:18;;;;;;;25.65;21.95;;;11.00;61.90;;;;;;5116303;27;20066;-74
2021/04/20 00:22:44;;;;;;;23.70;20.35;;;11.00;62.10;;;;;;5099682;27;20119;-73
2021/04/20 00:25:10;;;;;;;23.88;20.95;;;10.90;62.10;;;;;;5099894;27;20039;-74
2021/04/20 00:27:36;;;;;;;23.90;20.75;;;10.90;62.20;;;;;;5115735;27;20039;-74
2021/04/20 00:30:04;;;;;;;22.80;20.02;;;10.90;62.20;;;;;;5100338;27;20055;-74
2021/04/20 00:32:29;;;;;;;24.65;21.58;;;10.80;62.30;;;;;;5116516;27;20455;-74
2021/04/20 00:34:55;;;;;;;22.75;20.30;;;10.80;62.30;;;;;;5117253;27;20047;-74
2021/04/20 00:37:23;;;;;;;23.83;20.80;;;10.80;62.40;;;;;;5099981;27;20043;-73
2021/04/20 00:39:49;;;;;;;24.90;20.50;;;10.80;62.40;;;;;;5116964;27;20104;-75
2021/04/20 00:42:14;;;;;;;23.95;21.42;;;10.70;62.40;;;;;;5100007;27;20575;-74
2021/04/20 00:44:42;;;;;;;23.48;20.90;;;10.70;62.40;;;;;;5116243;27;20050;-74
2021/04/20 00:47:10;;;;;;;24.05;21.15;;;10.70;62.40;;;;;;5133956;27;20409;-73
2021/04/20 00:49:36;;;;;;;23.83;21.10;;;10.70;62.60;;;;;;5132712;27;20047;-73
2021/04/20 00:52:02;;;;;;;24.00;21.45;;;10.60;62.60;;;;;;5115699;27;20059;-74
2021/04/20 00:54:27;;;;;;;24.85;20.60;;;10.60;62.60;;;;;;5116558;27;20065;-74
2021/04/20 00:56:53;;;;;;;23.98;21.08;;;10.60;62.70;;;;;;5133321;27;20107;-74
2021/04/20 00:59:20;;;;;;;25.48;22.13;;;10.60;62.80;;;;;;5116670;28;20535;-73
2021/04/20 01:01:46;;;;;;;25.38;21.27;;;10.60;62.80;;;;;;5115491;27;20074;-73
2021/04/20 01:04:12;;;;;;;23.20;20.65;;;10.50;62.80;;;;;;5116581;28;20039;-74
2021/04/20 01:06:42;;;;;;;25.55;20.90;;;10.50;62.90;;;;;;5132736;28;20090;-74
2021/04/20 01:09:08;;;;;;;24.65;21.00;;;10.50;63.00;;;;;;5117145;28;20042;-73
2021/04/20 01:11:37;;;;;;;23.70;20.45;;;10.50;62.90;;;;;;5115602;28;20138;-75
2021/04/20 01:14:04;;;;;;;23.58;20.83;;;10.40;63.00;;;;;;5099813;28;20039;-74
2021/04/20 01:16:29;;;;;;;23.60;19.98;;;10.50;63.00;;;;;;5099728;28;20590;-74
2021/04/20 01:18:56;;;;;;;23.83;20.90;;;10.40;63.00;;;;;;5134403;27;20054;-74
2021/04/20 01:21:21;;;;;;;25.83;21.02;;;10.40;63.10;;;;;;5116256;28;20490;-73
2021/04/20 01:23:58;;;;;;;24.60;21.20;;;10.30;63.00;;;;;;5098975;28;20051;-74
2021/04/20 01:26:26;;;;;;;23.65;20.17;;;10.30;63.20;;;;;;5133666;28;20383;-74
2021/04/20 01:28:52;;;;;;;23.15;20.65;;;10.30;63.20;;;;;;5117147;27;20073;-73
2021/04/20 01:31:17;;;;;;;23.95;21.35;;;10.20;63.20;;;;;;5103511;27;20042;-73
2021/04/20 01:33:43;;;;;;;25.73;21.20;;;10.20;63.30;;;;;;5136909;27;20123;-74
2021/04/20 01:36:11;;;;;;;23.90;20.63;;;10.20;63.40;;;;;;5120139;27;20047;-74
2021/04/20 01:38:40;;;;;;;24.90;20.80;;;10.20;63.50;;;;;;5119552;27;20384;-74
2021/04/20 01:41:05;;;;;;;27.83;22.15;;;10.20;63.60;;;;;;5103636;27;20075;-74
2021/04/20 01:43:31;;;;;;;27.02;22.95;;;10.20;63.70;;;;;;5137319;27;20047;-74
2021/04/20 01:45:57;;;;;;;26.33;22.45;;;10.10;63.70;;;;;;5119366;27;20047;-73
2021/04/20 01:48:23;;;;;;;23.35;20.20;;;10.10;63.80;;;;;;5119999;27;20535;-73
2021/04/20 01:50:49;;;;;;;24.33;21.67;;;10.10;63.90;;;;;;5119433;27;20065;-75
2021/04/20 01:53:14;;;;;;;25.15;22.02;;;10.10;63.90;;;;;;5137121;27;20058;-73
2021/04/20 01:55:40;;;;;;;23.85;21.00;;;10.10;64.00;;;;;;5136371;27;20035;-74
2021/04/20 01:58:06;;;;;;;24.45;21.85;;;10.10;64.00;;;;;;5136940;27;20390;-74
2021/04/20 02:00:32;;;;;;;24.88;21.88;;;10.00;64.00;;;;;;5136941;27;20043;-72
2021/04/20 02:02:58;;;;;;;25.05;22.38;;;10.10;64.10;;;;;;5101007;27;20475;-73
2021/04/20 02:05:24;;;;;;;28.15;21.52;;;9.90;64.10;;;;;;5102271;27;20058;-74
2021/04/20 02:07:50;;;;;;;26.20;20.90;;;9.90;64.20;;;;;;5101702;27;20059;-74
2021/04/20 02:10:15;;;;;;;25.88;21.38;;;9.90;64.30;;;;;;5136491;27;20039;-74
2021/04/20 02:12:42;;;;;;;23.23;20.58;;;9.90;64.40;;;;;;5118685;27;20046;-74
2021/04/20 02:15:10;;;;;;;24.80;21.40;;;9.90;64.50;;;;;;5102754;27;20073;-74
2021/04/20 02:17:36;;;;;;;26.23;21.70;;;9.80;64.50;;;;;;5102723;27;20068;-74
2021/04/20 02:20:07;;;;;;;25.23;21.75;;;9.80;64.60;;;;;;5135966;27;20051;-74
2021/04/20 02:22:46;;;;;;;25.63;21.15;;;9.80;64.80;;;;;;5102589;27;20061;-73
2021/04/20 02:25:13;;;;;;;28.27;22.88;;;9.80;65.00;;;;;;5103230;27;20065;-74
2021/04/20 02:27:39;;;;;;;26.70;23.17;;;9.80;65.00;;;;;;5119180;27;20100;-73
2021/04/20 02:30:09;;;;;;;28.77;21.60;;;9.80;65.00;;;;;;5101399;27;20047;-75
2021/04/20 02:32:36;;;;;;;27.48;22.25;;;9.70;65.10;;;;;;5102489;27;20099;-74
2021/04/20 02:35:02;;;;;;;28.00;23.30;;;9.70;65.10;;;;;;5118484;27;20063;-74
2021/04/20 02:37:28;;;;;;;26.38;22.50;;;9.70;65.10;;;;;;5136225;27;20043;-73
2021/04/20 02:39:54;;;;;;;25.67;21.75;;;9.70;65.20;;;;;;5100904;27;20043;-74
2021/04/20 02:42:20;;;;;;;25.70;21.67;;;9.70;65.20;;;;;;5102357;27;20062;-73
2021/04/20 02:44:46;;;;;;;25.23;21.95;;;9.60;65.10;;;;;;5118300;27;20092;-75
2021/04/20 02:47:11;;;;;;;26.90;22.05;;;9.60;65.20;;;;;;5101986;27;20066;-73
2021/04/20 02:49:38;;;;;;;26.73;22.75;;;9.60;65.30;;;;;;5118791;27;20138;-74
2021/04/20 02:52:04;;;;;;;27.15;22.63;;;9.60;65.30;;;;;;5101583;27;20047;-73
2021/04/20 02:54:30;;;;;;;26.63;21.45;;;9.50;65.30;;;;;;5118985;27;20091;-74
2021/04/20 02:56:57;;;;;;;26.58;22.35;;;9.50;65.40;;;;;;5118172;27;20091;-74
2021/04/20 02:59:23;;;;;;;27.52;23.13;;;9.50;65.50;;;;;;5101914;27;20050;-74
2021/04/20 03:01:49;;;;;;;25.42;21.25;;;9.50;65.50;;;;;;5117873;27;20502;-75
2021/04/20 03:04:16;;;;;;;24.95;22.00;;;9.40;65.50;;;;;;5101470;27;20068;-72
2021/04/20 03:06:43;;;;;;;25.27;22.17;;;9.50;65.60;;;;;;5117164;27;20688;-74
2021/04/20 03:09:10;;;;;;;29.88;22.30;;;9.40;65.60;;;;;;5099286;27;20060;-75
2021/04/20 03:11:52;;;;;;;25.73;22.13;;;9.40;65.70;;;;;;5115231;27;20071;-74
2021/04/20 03:14:18;;;;;;;26.35;22.40;;;9.30;65.70;;;;;;5116409;27;20051;-73
2021/04/20 03:16:44;;;;;;;25.13;22.30;;;9.40;65.80;;;;;;5098296;27;20471;-73
2021/04/20 03:19:10;;;;;;;27.15;22.65;;;9.30;65.80;;;;;;5115324;27;20047;-74
2021/04/20 03:21:36;;;;;;;29.25;23.45;;;9.30;65.90;;;;;;5135702;27;20073;-74
2021/04/20 03:24:02;;;;;;;27.42;22.15;;;9.30;65.90;;;;;;5100409;27;20476;-74
2021/04/20 03:26:39;;;;;;;26.70;23.02;;;9.30;66.00;;;;;;5118793;27;20094;-73
2021/04/20 03:29:09;;;;;;;26.60;22.33;;;9.30;66.10;;;;;;5101628;27;20043;-74
2021/04/20 03:31:39;;;;;;;26.33;22.40;;;9.30;65.90;;;;;;5118680;27;20122;-74
2021/04/20 03:34:10;;;;;;;26.08;22.13;;;9.30;65.90;;;;;;5117428;27;20043;-74
2021/04/20 03:36:39;;;;;;;27.70;23.07;;;9.20;66.00;;;;;;5136345;27;20092;-73
2021/04/20 03:39:22;;;;;;;27.75;23.30;;;9.20;66.00;;;;;;5100749;27;20736;-73
2021/04/20 03:41:55;;;;;;;30.05;22.83;;;9.20;66.30;;;;;;5118106;27;20046;-73
2021/04/20 03:44:29;;;;;;;26.15;22.33;;;9.20;66.30;;;;;;5117950;27;20409;-73
2021/04/20 03:46:58;;;;;;;27.63;22.55;;;9.20;66.40;;;;;;5117673;27;20190;-74
2021/04/20 03:49:35;;;;;;;25.95;22.42;;;9.20;66.20;;;;;;5101131;27;20403;-74
2021/04/20 03:52:01;;;;;;;25.77;21.77;;;9.10;66.20;;;;;;5100528;27;20110;-73
2021/04/20 03:54:29;;;;;;;25.77;21.75;;;9.10;66.20;;;;;;5117635;27;20504;-73
2021/04/20 03:56:55;;;;;;;23.33;20.30;;;9.10;66.20;;;;;;5100906;27;20058;-73
2021/04/20 03:59:22;;;;;;;27.05;22.75;;;9.10;66.20;;;;;;5101399;27;20508;-73
2021/04/20 04:01:49;;;;;;;28.27;23.35;;;9.10;66.20;;;;;;5118654;27;20091;-73
2021/04/20 04:04:17;;;;;;;32.55;25.35;;;9.00;66.40;;;;;;5117756;27;20042;-73
2021/04/20 04:06:43;;;;;;;29.60;23.05;;;9.00;66.40;;;;;;5101111;27;20051;-73
2021/04/20 04:09:10;;;;;;;25.83;22.10;;;9.00;66.50;;;;;;5100184;27;20065;-74
2021/04/20 04:12:08;;;;;;;28.58;23.23;;;9.00;66.70;;;;;;5100790;27;20118;-72
2021/04/20 04:14:34;;;;;;;27.75;22.05;;;9.00;66.90;;;;;;5098846;27;20073;-75
2021/04/20 04:17:05;;;;;;;29.58;24.30;;;9.00;66.60;;;;;;5117752;27;20039;-74
2021/04/20 04:19:46;;;;;;;27.30;22.83;;;8.90;66.70;;;;;;5119023;27;20467;-74
2021/04/20 04:22:14;;;;;;;29.63;23.97;;;9.00;67.00;;;;;;5101877;27;20049;-73
2021/04/20 04:24:54;;;;;;;28.58;23.08;;;8.90;66.90;;;;;;5117769;27;20337;-73
2021/04/20 04:27:24;;;;;;;26.33;21.98;;;8.90;67.20;;;;;;5117839;27;20063;-72
2021/04/20 04:29:52;;;;;;;26.45;22.20;;;8.90;67.10;;;;;;5084311;27;20441;-74
2021/04/20 04:32:18;;;;;;;30.55;23.98;;;8.90;67.10;;;;;;5100983;27;20039;-73
2021/04/20 04:34:48;;;;;;;27.52;23.35;;;8.90;67.10;;;;;;5135169;27;20047;-74
2021/04/20 04:37:14;;;;;;;28.77;24.27;;;8.90;67.10;;;;;;5100698;27;20062;-73
2021/04/20 04:39:41;;;;;;;29.58;23.65;;;8.80;67.10;;;;;;5097268;28;20040;-73
2021/04/20 04:42:07;;;;;;;28.58;23.25;;;8.80;67.10;;;;;;5104616;28;20043;-73
2021/04/20 04:44:33;;;;;;;28.58;23.55;;;8.90;67.20;;;;;;5090915;27;20436;-73
2021/04/20 04:46:59;;;;;;;28.45;22.85;;;8.90;67.20;;;;;;5124760;27;20040;-74
2021/04/20 04:49:25;;;;;;;31.02;23.42;;;8.80;67.30;;;;;;5090203;27;20035;-73
2021/04/20 04:51:51;;;;;;;30.42;23.60;;;8.80;67.40;;;;;;5121055;27;20035;-72
2021/04/20 04:54:17;;;;;;;31.38;24.52;;;8.80;67.50;;;;;;5101213;27;20377;-74
2021/04/20 04:56:43;;;;;;;29.80;23.10;;;8.80;67.40;;;;;;5101905;27;20046;-74
2021/04/20 04:59:09;;;;;;;30.00;23.35;;;8.80;67.50;;;;;;5118591;27;20039;-73
2021/04/20 05:01:36;;;;;;;31.90;25.42;;;8.80;67.70;;;;;;5083744;28;20036;-74
2021/04/20 05:04:09;;;;;;;31.85;24.23;;;8.80;67.70;;;;;;5101493;28;20096;-74
2021/04/20 05:06:56;;;;;;;28.70;24.10;;;8.80;67.80;;;;;;5081285;28;20051;-73
2021/04/20 05:09:24;;;;;;;32.55;25.15;;;8.80;67.80;;;;;;5106615;28;20842;-72
2021/04/20 05:11:52;;;;;;;30.95;24.90;;;8.80;67.80;;;;;;5093466;28;20099;-72
2021/04/20 05:14:19;;;;;;;30.15;24.33;;;8.80;67.80;;;;;;5090244;28;20048;-73
2021/04/20 05:16:47;;;;;;;29.83;24.58;;;8.80;67.90;;;;;;5101168;28;20146;-73
2021/04/20 05:19:13;;;;;;;32.08;25.10;;;8.80;67.90;;;;;;5082533;28;20043;-74
2021/04/20 05:21:39;;;;;;;33.40;26.75;;;8.80;67.90;;;;;;5099915;28;20407;-73
2021/04/20 05:24:06;;;;;;;31.45;25.35;;;8.80;67.90;;;;;;5086238;28;20623;-74
2021/04/20 05:26:32;;;;;;;33.92;25.63;;;8.80;68.00;;;;;;5084745;28;20061;-74
2021/04/20 05:29:01;;;;;;;32.38;24.92;;;8.80;68.00;;;;;;5119131;28;20039;-74
2021/04/20 05:31:31;;;;;;;32.38;25.65;;;8.80;68.20;;;;;;5104576;28;20044;-73
2021/04/20 05:33:57;;;;;;;38.22;26.05;;;8.80;68.20;;;;;;5092988;28;20372;-73
2021/04/20 05:36:23;;;;;;;32.58;25.85;;;8.80;68.20;;;;;;5102172;28;20039;-74
2021/04/20 05:38:50;;;;;;;32.05;26.23;;;8.80;68.30;;;;;;5118547;28;20062;-73
2021/04/20 05:41:30;;;;;;;34.40;26.35;;;8.90;68.40;;;;;;5090858;28;20039;-74
2021/04/20 05:43:57;;;;;;;34.75;26.83;;;8.80;68.40;;;;;;5092522;28;20110;-74
2021/04/20 05:46:23;;;;;;;34.90;27.48;;;8.90;68.40;;;;;;5085616;28;20111;-74
2021/04/20 05:48:49;;;;;;;35.72;28.20;;;8.90;68.40;;;;;;5090456;28;20059;-73
2021/04/20 05:51:18;;;;;;;38.00;27.08;;;8.90;68.40;;;;;;5080614;28;20143;-74
2021/04/20 05:53:45;;;;;;;32.75;27.15;;;8.90;68.60;;;;;;5113477;28;20052;-73
2021/04/20 05:56:11;;;;;;;34.85;27.60;;;8.90;68.50;;;;;;5096323;28;20463;-74
2021/04/20 05:58:36;;;;;;;38.60;28.75;;;9.00;68.50;;;;;;5096503;28;20047;-73
2021/04/20 06:01:03;;;;;;;38.25;27.85;;;9.00;68.50;;;;;;5096270;28;20048;-73
2021/04/20 06:03:29;;;;;;;37.85;28.65;;;9.00;68.50;;;;;;5112851;28;20074;-73
2021/04/20 06:05:58;;;;;;;38.28;28.52;;;9.00;68.60;;;;;;5079667;28;20494;-73
2021/04/20 06:08:24;;;;;;;38.40;29.80;;;9.00;68.70;;;;;;5095260;28;20052;-74
2021/04/20 06:10:49;;;;;;;41.28;31.85;;;9.00;68.60;;;;;;5096625;28;20097;-73
2021/04/20 06:13:15;;;;;;;40.38;31.75;;;9.10;68.80;;;;;;5079283;28;20036;-74
2021/04/20 06:15:41;;;;;;;39.88;31.13;;;9.00;68.80;;;;;;5082114;28;20040;-73
2021/04/20 06:18:07;;;;;;;42.53;30.88;;;9.10;68.90;;;;;;5102988;27;20055;-74
2021/04/20 06:20:33;;;;;;;39.70;31.77;;;9.10;69.00;;;;;;5104548;28;20044;-72
2021/04/20 06:22:59;;;;;;;40.53;31.67;;;9.10;69.10;;;;;;5104812;27;20475;-73
2021/04/20 06:25:25;;;;;;;41.53;32.25;;;9.10;69.00;;;;;;5093028;27;20065;-74
2021/04/20 06:27:51;;;;;;;41.38;32.75;;;9.20;69.10;;;;;;5102914;27;20499;-73
2021/04/20 06:30:19;;;;;;;41.25;31.63;;;9.20;69.20;;;;;;5116833;27;20047;-74
2021/04/20 06:32:45;;;;;;;39.95;30.88;;;9.20;69.20;;;;;;5084494;28;20097;-74
2021/04/20 06:35:12;;;;;;;38.88;31.45;;;9.20;69.20;;;;;;5099992;28;20039;-76
2021/04/20 06:37:39;;;;;;;39.75;31.30;;;9.20;69.20;;;;;;5099225;28;20059;-75
2021/04/20 06:40:09;;;;;;;23.10;18.00;;;9.30;69.30;;;;;;5066248;28;20043;-76
2021/04/20 06:42:48;;;;;;;45.10;34.42;;;9.40;70.00;;;;;;5067986;27;20079;-80
2021/04/20 06:45:28;;;;;;;47.00;36.35;;;9.70;70.80;;;;;;5109453;27;20040;-77
2021/04/20 06:48:00;;;;;;;44.25;34.40;;;9.80;70.70;;;;;;5096440;27;20032;-74
2021/04/20 06:50:27;;;;;;;46.17;35.47;;;9.80;70.70;;;;;;5123708;27;20035;-75
2021/04/20 06:52:58;;;;;;;51.90;39.05;;;9.80;70.90;;;;;;5127051;27;20036;-78
2021/04/20 06:55:28;;;;;;;48.38;38.88;;;9.80;71.30;;;;;;5090124;27;20051;-81
2021/04/20 06:58:21;;;;;;;49.30;37.15;;;9.80;71.30;;;;;;5109414;27;20035;-79
2021/04/20 07:00:52;;;;;;;46.13;36.47;;;9.90;71.60;;;;;;5118858;27;20047;-77
2021/04/20 07:03:32;;;;;;;48.08;37.33;;;9.90;71.60;;;;;;5099547;28;20055;-75
2021/04/20 07:06:35;;;;;;;48.67;38.53;;;10.00;71.70;;;;;;5082492;28;20533;-76
2021/04/20 07:09:09;;;;;;;50.17;39.67;;;10.10;72.30;;;;;;5107502;27;20111;-76
2021/04/20 07:11:35;;;;;;;50.60;38.42;;;10.10;71.70;;;;;;5086321;27;20040;-76
2021/04/20 07:14:03;;;;;;;51.83;39.83;;;10.10;71.60;;;;;;5093671;27;20064;-77
2021/04/20 07:16:29;;;;;;;52.13;39.55;;;10.10;72.00;;;;;;5081972;27;20047;-74
2021/04/20 07:19:42;;;;;;;54.70;41.13;;;10.20;72.30;;;;;;5119425;27;20055;-74
2021/04/20 07:22:53;;;;;;;48.35;38.13;;;10.20;73.10;;;;;;5114083;27;20495;-75
2021/04/20 07:25:31;;;;;;;47.63;36.95;;;10.30;73.20;;;;;;5136213;27;20083;-73
2021/04/20 07:28:17;;;;;;;49.67;39.80;;;10.30;72.50;;;;;;5136180;27;20035;-73
2021/04/20 07:30:45;;;;;;;48.63;37.00;;;10.40;72.80;;;;;;5135504;27;20043;-73
2021/04/20 07:33:50;;;;;;;47.20;36.78;;;10.40;72.60;;;;;;5119054;27;20043;-75
2021/04/20 07:36:25;;;;;;;50.83;39.58;;;10.50;72.80;;;;;;5135462;27;20047;-72
2021/04/20 07:39:15;;;;;;;51.05;39.63;;;10.60;72.60;;;;;;5135670;27;20100;-72
2021/04/20 07:42:02;;;;;;;53.80;38.85;;;10.60;72.90;;;;;;5102753;27;20046;-74
2021/04/20 07:44:37;;;;;;;43.08;36.25;;;10.70;72.30;;;;;;5135114;27;20043;-75
2021/04/20 07:47:13;;;;;;;52.50;38.63;;;10.70;72.40;;;;;;5137221;27;20050;-73
2021/04/20 07:50:04;;;;;;;45.58;36.05;;;10.80;72.90;;;;;;5097300;27;20177;-72
2021/04/20 07:52:36;;;;;;;44.97;35.03;;;10.90;72.50;;;;;;5122084;27;20040;-74
2021/04/20 07:55:12;;;;;;;46.40;37.15;;;10.90;72.30;;;;;;5125565;27;20039;-72
2021/04/20 07:57:51;;;;;;;47.55;38.22;;;11.00;72.10;;;;;;5123980;27;20042;-72
2021/04/20 08:00:22;;;;;;;49.30;40.25;;;11.10;72.30;;;;;;5091481;27;20092;-72
2021/04/20 08:03:16;;;;;;;47.78;39.58;;;11.10;72.40;;;;;;5106226;27;20093;-72
2021/04/20 08:05:46;;;;;;;46.10;39.08;;;11.20;72.90;;;;;;5125701;27;20493;-73
2021/04/20 08:08:26;;;;;;;49.10;40.63;;;11.20;72.40;;;;;;5095391;27;20058;-72
2021/04/20 08:10:55;;;;;;;43.55;36.30;;;11.30;72.50;;;;;;5093523;28;20158;-73
2021/04/20 08:13:26;;;;;;;43.63;36.38;;;11.30;72.30;;;;;;5111431;27;20043;-74
2021/04/20 08:15:54;;;;;;;40.25;34.35;;;11.40;72.40;;;;;;5101962;28;20222;-75
2021/04/20 08:18:34;;;;;;;44.30;35.45;;;11.50;72.20;;;;;;5098060;28;20056;-75
2021/04/20 08:21:00;;;;;;;44.25;34.65;;;11.50;72.20;;;;;;5098213;28;20107;-78
2021/04/20 08:23:27;;;;;;;39.97;34.35;;;11.60;71.90;;;;;;5112241;27;20047;-74
2021/04/20 08:26:02;;;;;;;40.00;33.00;;;11.60;71.80;;;;;;5129230;27;20448;-75
2021/04/20 08:28:45;;;;;;;41.47;33.40;;;11.60;71.50;;;;;;5095941;27;20042;-75
2021/04/20 08:31:16;;;;;;;40.70;33.05;;;11.70;71.70;;;;;;5112558;27;20036;-72
2021/04/20 08:33:43;;;;;;;40.97;33.08;;;11.80;71.40;;;;;;5127967;27;20043;-72
2021/04/20 08:36:32;;;;;;;47.00;34.75;;;11.90;71.40;;;;;;5111419;28;20059;-73
2021/04/20 08:39:22;;;;;;;42.70;34.65;;;11.90;71.40;;;;;;5070026;27;20050;-77
2021/04/20 08:41:57;;;;;;;21.17;18.55;;;12.10;71.60;;;;;;5134607;27;20113;-72
2021/04/20 08:44:32;;;;;;;32.75;27.75;;;12.20;71.70;;;;;;5118720;28;20482;-78
2021/04/20 08:47:14;;;;;;;30.17;24.52;;;12.60;70.70;;;;;;5135068;27;20044;-71
2021/04/20 08:49:44;;;;;;;23.10;18.33;;;12.90;70.10;;;;;;5118324;28;20035;-76
2021/04/20 08:52:41;;;;;;;28.23;22.70;;;13.30;69.40;;;;;;5118531;28;20051;-75
2021/04/20 08:55:35;;;;;;;28.25;22.20;;;13.80;68.20;;;;;;5118434;28;20039;-76
2021/04/20 08:58:19;;;;;;;30.75;26.90;;;14.20;66.70;;;;;;5125959;27;20035;-76
2021/04/20 09:00:52;;;;;;;33.10;27.88;;;14.30;65.70;;;;;;5117284;27;20479;-74
2021/04/20 09:03:36;;;;;;;34.28;27.85;;;14.30;65.50;;;;;;5121129;28;20042;-74
2021/04/20 09:06:04;;;;;;;25.02;19.63;;;14.30;65.60;;;;;;5118393;27;20031;-74
2021/04/20 09:08:39;;;;;;;25.02;21.48;;;14.40;65.70;;;;;;5118096;28;20050;-73
2021/04/20 09:11:07;;;;;;;29.13;23.38;;;14.50;65.50;;;;;;5137481;28;20073;-74
2021/04/20 09:13:38;;;;;;;31.45;26.30;;;14.60;65.50;;;;;;5138357;28;20091;-74
2021/04/20 09:16:10;;;;;;;33.63;28.70;;;14.60;65.50;;;;;;5104473;28;20130;-74
2021/04/20 09:18:43;;;;;;;33.00;27.27;;;14.70;65.90;;;;;;5104911;28;20047;-74
2021/04/20 09:21:37;;;;;;;36.90;29.08;;;14.70;66.10;;;;;;5105553;28;20045;-73
2021/04/20 09:24:17;;;;;;;32.90;27.55;;;14.80;65.80;;;;;;5138392;28;20046;-73
2021/04/20 09:27:04;;;;;;;30.27;26.88;;;14.80;65.50;;;;;;5103941;28;20397;-75
2021/04/20 09:29:36;;;;;;;31.42;26.67;;;14.90;65.50;;;;;;5139953;28;20189;-73
2021/04/20 09:32:07;;;;;;;30.87;27.63;;;14.90;65.40;;;;;;5104296;28;20039;-73
2021/04/20 09:34:38;;;;;;;29.63;24.98;;;15.00;65.40;;;;;;5121821;28;20289;-73
2021/04/20 09:37:04;;;;;;;28.45;25.35;;;15.10;65.40;;;;;;5120548;28;20070;-73
2021/04/20 09:39:34;;;;;;;29.67;25.48;;;15.20;65.50;;;;;;5121489;28;20043;-73
2021/04/20 09:42:00;;;;;;;29.25;24.48;;;15.30;65.40;;;;;;5104781;28;20055;-74
2021/04/20 09:44:40;;;;;;;27.17;24.33;;;15.40;65.20;;;;;;5121388;28;20051;-74
2021/04/20 09:47:09;;;;;;;27.83;23.38;;;15.50;65.00;;;;;;5121234;28;20047;-73
2021/04/20 09:49:40;;;;;;;25.17;22.48;;;15.70;64.70;;;;;;5139249;27;20503;-73
2021/04/20 09:52:14;;;;;;;25.15;22.45;;;15.80;64.40;;;;;;5141831;27;20051;-73
2021/04/20 09:54:55;;;;;;;24.85;21.88;;;15.90;64.20;;;;;;5108919;27;20044;-73
2021/04/20 09:57:23;;;;;;;25.30;22.60;;;16.10;63.70;;;;;;5125187;27;20047;-73
2021/04/20 10:00:04;;;;;;;24.60;21.98;;;16.10;63.20;;;;;;5107778;27;20114;-74
2021/04/20 10:02:45;;;;;;;24.00;21.50;;;16.20;62.90;;;;;;5108428;27;20039;-73
2021/04/20 10:05:24;;;;;;;24.98;20.98;;;16.40;62.90;;;;;;5142938;27;20047;-73
2021/04/20 10:08:10;;;;;;;25.15;22.52;;;16.50;62.50;;;;;;5141320;27;20036;-74
2021/04/20 10:10:53;;;;;;;26.92;21.15;;;16.70;62.70;;;;;;5142710;27;20058;-73
2021/04/20 10:13:44;;;;;;;23.13;19.75;;;16.90;62.40;;;;;;5125515;27;20041;-74
2021/04/20 10:16:22;;;;;;;22.73;19.77;;;17.10;62.30;;;;;;5126750;27;20047;-74
2021/04/20 10:19:27;;;;;;;24.98;22.33;;;17.30;62.70;;;;;;5124541;27;20040;-75
2021/04/20 10:22:22;;;;;;;24.83;22.15;;;17.60;62.10;;;;;;5124230;27;20066;-74
2021/04/20 10:25:11;;;;;;;22.70;20.00;;;17.80;61.90;;;;;;5124867;27;20035;-75
2021/04/20 10:27:40;;;;;;;23.02;20.52;;;18.00;61.60;;;;;;5124730;27;20335;-73
2021/04/20 10:30:15;;;;;;;24.30;21.80;;;18.20;60.60;;;;;;5124504;27;20039;-74
2021/04/20 10:32:51;;;;;;;27.10;22.92;;;18.30;59.80;;;;;;5108642;27;20091;-73
2021/04/20 10:35:21;;;;;;;25.23;21.83;;;18.30;58.70;;;;;;5125192;27;20043;-74
2021/04/20 10:37:53;;;;;;;23.45;21.02;;;18.40;58.90;;;;;;5108236;27;20051;-72
2021/04/20 10:40:34;;;;;;;24.45;21.80;;;18.40;58.80;;;;;;5107810;27;20043;-74
2021/04/20 10:43:19;;;;;;;23.00;20.83;;;18.50;58.90;;;;;;5122852;27;20046;-74
2021/04/20 10:45:44;;;;;;;24.58;22.10;;;18.50;58.20;;;;;;5100383;27;20067;-73
2021/04/20 10:48:14;;;;;;;23.00;20.63;;;18.60;58.30;;;;;;5115274;27;20108;-73
2021/04/20 10:50:40;;;;;;;24.15;21.63;;;18.60;58.20;;;;;;5099549;27;20118;-73
2021/04/20 10:53:12;;;;;;;23.25;20.85;;;18.70;57.90;;;;;;5098039;27;20435;-73
2021/04/20 10:55:40;;;;;;;22.02;19.70;;;18.90;58.10;;;;;;5116847;27;20137;-72
2021/04/20 10:58:07;;;;;;;24.75;22.15;;;19.10;58.20;;;;;;5115308;27;20054;-74
2021/04/20 11:00:33;;;;;;;21.52;18.42;;;19.40;58.10;;;;;;5098944;27;20078;-72
2021/04/20 11:02:59;;;;;;;20.23;18.15;;;19.60;57.80;;;;;;5098050;27;20051;-74
2021/04/20 11:05:27;;;;;;;26.17;23.58;;;19.70;57.40;;;;;;5115801;27;20039;-72
2021/04/20 11:07:53;;;;;;;24.52;22.13;;;19.80;56.50;;;;;;5081856;27;20126;-72
2021/04/20 11:10:21;;;;;;;23.23;20.83;;;19.90;56.40;;;;;;5081071;27;20453;-73
2021/04/20 11:12:48;;;;;;;23.05;20.65;;;20.00;56.70;;;;;;5116167;27;20043;-73
2021/04/20 11:15:32;;;;;;;25.88;23.25;;;20.00;55.50;;;;;;5097898;27;20043;-73
2021/04/20 11:18:06;;;;;;;24.98;22.48;;;20.00;53.40;;;;;;5115122;27;20066;-73
2021/04/20 11:20:39;;;;;;;24.25;21.67;;;20.00;53.90;;;;;;5099367;27;20046;-74
2021/04/20 11:23:12;;;;;;;21.60;19.55;;;20.00;54.30;;;;;;5114234;27;20035;-74
2021/04/20 11:25:50;;;;;;;23.10;20.80;;;20.00;54.20;;;;;;5097780;27;20050;-74
2021/04/20 11:28:25;;;;;;;25.58;23.08;;;20.00;54.20;;;;;;5130735;27;20116;-71
2021/04/20 11:30:55;;;;;;;22.77;20.13;;;20.00;54.30;;;;;;5115848;27;20126;-70
2021/04/20 11:33:40;;;;;;;18.83;15.90;;;19.80;53.00;;;;;;5108500;27;20096;-73
2021/04/20 11:36:12;;;;;;;21.38;19.08;;;19.70;52.50;;;;;;5089115;27;20032;-77
2021/04/20 11:38:48;;;;;;;26.77;22.40;;;19.60;51.80;;;;;;5105050;27;20090;-77
2021/04/20 11:41:18;;;;;;;36.03;20.30;;;19.60;50.90;;;;;;5102773;27;20039;-76
2021/04/20 11:43:58;;;;;;;26.90;23.63;;;19.70;51.30;;;;;;5098627;27;20483;-75
2021/04/20 11:46:24;;;;;;;27.83;24.70;;;19.90;50.60;;;;;;5098266;27;20035;-75
2021/04/20 11:48:54;;;;;;;27.70;22.90;;;20.10;52.50;;;;;;5087606;27;20396;-74
2021/04/20 11:51:20;;;;;;;26.40;23.40;;;20.30;51.10;;;;;;5102047;27;20443;-72
2021/04/20 11:53:47;;;;;;;26.63;23.92;;;20.50;49.90;;;;;;5105652;27;20237;-70
2021/04/20 11:56:13;;;;;;;24.73;22.23;;;20.70;49.20;;;;;;5087586;27;20367;-73
2021/04/20 11:58:43;;;;;;;23.40;21.00;;;20.90;48.50;;;;;;5105473;27;20031;-73
2021/04/20 12:01:21;;;;;;;25.15;22.65;;;21.10;47.80;;;;;;5093595;28;20553;-73
2021/04/20 12:04:00;;;;;;;23.75;21.35;;;21.40;46.50;;;;;;5107729;28;20081;-69
2021/04/20 12:06:36;;;;;;;23.20;20.90;;;21.60;46.40;;;;;;5098571;27;20036;-74
2021/04/20 12:09:01;;;;;;;25.08;22.50;;;21.90;48.20;;;;;;5094161;28;20448;-74
2021/04/20 12:11:28;;;;;;;26.73;23.63;;;21.90;46.30;;;;;;5075435;28;20140;-74
2021/04/20 12:13:54;;;;;;;26.23;23.63;;;21.70;45.30;;;;;;5076443;28;20047;-72
2021/04/20 12:16:19;;;;;;;25.20;22.70;;;21.60;46.90;;;;;;5076266;28;20498;-73
2021/04/20 12:18:46;;;;;;;25.85;23.33;;;21.60;46.00;;;;;;5076261;28;20538;-74
2021/04/20 12:21:19;;;;;;;23.85;21.58;;;21.60;47.20;;;;;;5092437;28;20057;-73
2021/04/20 12:23:48;;;;;;;23.15;21.05;;;21.60;47.20;;;;;;5093740;28;20061;-73
2021/04/20 12:26:14;;;;;;;24.75;22.27;;;21.40;45.90;;;;;;5076343;28;20058;-72
2021/04/20 12:28:42;;;;;;;24.92;22.42;;;21.30;45.50;;;;;;5076732;28;20035;-73
2021/04/20 12:31:08;;;;;;;23.48;21.27;;;21.20;44.80;;;;;;5092268;28;20076;-75
2021/04/20 12:33:35;;;;;;;24.10;21.73;;;21.30;45.40;;;;;;5093681;28;20094;-72
2021/04/20 12:36:01;;;;;;;24.83;22.25;;;21.40;45.10;;;;;;5110042;28;20122;-74
2021/04/20 12:38:28;;;;;;;24.42;21.95;;;21.50;44.40;;;;;;5075962;28;20535;-73
2021/04/20 12:41:03;;;;;;;23.20;20.90;;;21.50;43.60;;;;;;5093489;28;20147;-74
2021/04/20 12:43:31;;;;;;;23.80;21.30;;;21.40;42.80;;;;;;5075464;28;20048;-74
2021/04/20 12:46:09;;;;;;;21.52;19.35;;;21.30;43.40;;;;;;5076812;28;20498;-73
2021/04/20 12:48:36;;;;;;;20.67;18.67;;;21.50;43.60;;;;;;5093559;28;20063;-71
2021/04/20 12:51:02;;;;;;;20.02;16.85;;;21.60;43.80;;;;;;5076577;28;20044;-73